Weather at Saint Peter's Seaplane Base

Public forecast

Using degrees Fahrenheit for public forecast. Weather courtesy of forecast.io.

Closest aviation weather report (METAR) to Saint Peter's Seaplane Base

Closest report is Presque Isle International Airport, 19.5 nm (36.1 km) ESE. Retrieved 2020/09/30 12:56 UTC (47 minutes ago):

KPQI 301256Z AUTO 16021G32KT 10SM OVC015 21/19 A2944 RMK AO2 PK WND 16032/1249 SLP988 T02060189 PNO

Closest aviation forecast (TAF) to Saint Peter's Seaplane Base

Closest forecast is Presque Isle International Airport, 19.5 nm (36.1 km) ESE. Retrieved 2020/09/30 12:22 UTC (1 hour ago):

TAF KPQI 301120Z 3012/0112 14012G26KT 5SM -RA OVC008 WS020/18060KT FM301400 16017G37KT 3SM -RA OVC011 WS020/18065KT FM301800 19016G30KT 2SM RA OVC013 FM301900 21015G29KT 3SM -RA OVC021 FM302100 25014G29KT 6SM -SHRA BKN027 FM302200 24012G25KT P6SM BKN050 FM010000 24009KT P6SM BKN060 FM010400 21007KT P6SM FEW060